Time;durP1;ratioP1;P1;durP2;ratioP2;P2;SDS_P1;SDS_P2;PMS_P1;PMS_P2;Temp;Humidity;BMP_temperature;BMP_pressure;BME280_temperature;BME280_humidity;BME280_pressure;Samples;Min_cycle;Max_cycle;Signal;HPM_P1;HPM_P2
2021/06/21 00:02:58;;;;;;;3.40;1.30;;;;;;;18.61;87.07;100539.41;6271762;28;20045;-75
2021/06/21 00:05:59;;;;;;;3.40;1.20;;;;;;;18.66;85.46;100537.16;6271878;28;20057;-75
2021/06/21 00:09:01;;;;;;;5.20;1.30;;;;;;;18.56;87.33;100532.81;6271348;28;20543;-74
2021/06/21 00:12:04;;;;;;;4.20;1.00;;;;;;;18.61;86.00;100541.22;6271642;28;20072;-76
2021/06/21 00:15:07;;;;;;;5.40;1.40;;;;;;;18.58;86.06;100534.38;6271614;28;20048;-75
2021/06/21 00:18:12;;;;;;;4.93;1.42;;;;;;;18.55;86.24;100539.97;6271769;28;20056;-75
2021/06/21 00:21:14;;;;;;;4.57;1.60;;;;;;;18.49;86.47;100522.75;6271162;28;20182;-75
2021/06/21 00:24:20;;;;;;;5.25;1.92;;;;;;;18.54;85.64;100527.66;6271325;28;20045;-73
2021/06/21 00:27:24;;;;;;;5.10;1.65;;;;;;;18.43;86.67;100527.75;6271416;28;20422;-73
2021/06/21 00:30:25;;;;;;;6.53;1.23;;;;;;;18.40;87.12;100517.41;6269096;28;20063;-75
2021/06/21 00:33:27;;;;;;;6.13;1.60;;;;;;;18.46;86.93;100512.34;6270107;28;20499;-75
2021/06/21 00:36:28;;;;;;;3.60;1.17;;;;;;;18.42;87.60;100507.44;6271193;28;20048;-75
2021/06/21 00:39:29;;;;;;;3.80;1.45;;;;;;;18.55;86.26;100505.38;6271114;28;20056;-74
2021/06/21 00:42:34;;;;;;;3.80;1.83;;;;;;;18.47;85.70;100494.56;6271197;28;20049;-72
2021/06/21 00:45:36;;;;;;;3.13;1.58;;;;;;;18.44;85.94;100493.03;6271199;28;20389;-73
2021/06/21 00:48:37;;;;;;;5.75;1.50;;;;;;;18.36;87.79;100473.44;6271409;28;20049;-74
2021/06/21 00:51:39;;;;;;;4.53;1.48;;;;;;;18.35;86.13;100469.06;6276559;28;20052;-72
2021/06/21 00:54:40;;;;;;;3.17;1.55;;;;;;;18.40;85.92;100467.69;6276102;28;20041;-75
2021/06/21 00:57:43;;;;;;;5.95;1.70;;;;;;;18.23;87.33;100455.91;6276439;28;20052;-74
2021/06/21 01:00:44;;;;;;;5.28;1.70;;;;;;;18.33;86.86;100444.44;6274009;28;20411;-74
2021/06/21 01:03:45;;;;;;;9.70;1.77;;;;;;;18.32;85.92;100440.94;6275912;28;20052;-72
2021/06/21 01:06:47;;;;;;;1.70;1.20;;;;;;;18.21;88.37;100441.03;6276075;28;20053;-75
2021/06/21 01:09:51;;;;;;;2.85;1.40;;;;;;;18.38;86.49;100445.69;6275462;28;20415;-74
2021/06/21 01:13:08;;;;;;;7.30;1.40;;;;;;;18.30;87.66;100445.53;6275774;28;20455;-74
2021/06/21 01:16:16;;;;;;;5.90;1.70;;;;;;;18.32;86.68;100448.06;6275712;28;20052;-73
2021/06/21 01:19:30;;;;;;;6.82;1.67;;;;;;;18.22;87.13;100434.78;6275556;28;20060;-74
2021/06/21 01:23:00;;;;;;;6.20;1.70;;;;;;;18.28;87.58;100422.72;6275593;28;20496;-75
2021/06/21 01:26:07;;;;;;;4.97;1.30;;;;;;;18.31;86.42;100427.78;6275484;28;20056;-72
2021/06/21 01:29:30;;;;;;;11.23;1.40;;;;;;;18.27;87.71;100439.69;6275267;28;20056;-75
2021/06/21 01:32:40;;;;;;;6.05;1.52;;;;;;;18.40;85.89;100438.41;6273587;28;20450;-75
2021/06/21 01:35:48;;;;;;;4.20;1.50;;;;;;;18.34;86.01;100438.97;6275505;28;20052;-73
2021/06/21 01:38:52;;;;;;;6.70;1.50;;;;;;;18.27;86.19;100439.69;6274928;28;20045;-74
2021/06/21 01:42:01;;;;;;;6.88;1.67;;;;;;;18.16;88.05;100444.13;6275131;28;20071;-74
2021/06/21 01:45:06;;;;;;;4.90;1.65;;;;;;;18.19;88.30;100435.03;6274969;28;20052;-74
2021/06/21 01:48:09;;;;;;;2.85;1.30;;;;;;;18.18;88.10;100436.03;6275207;28;20052;-74
2021/06/21 01:51:12;;;;;;;5.20;1.60;;;;;;;17.97;91.20;100438.78;6274431;28;20056;-74
2021/06/21 01:54:16;;;;;;;5.15;1.50;;;;;;;17.95;96.01;100443.41;6274787;28;20171;-74
2021/06/21 01:57:22;;;;;;;5.78;1.90;;;;;;;17.89;94.24;100431.47;6274801;28;20049;-72
2021/06/21 02:00:24;;;;;;;10.57;2.10;;;;;;;17.77;97.10;100437.91;6273640;28;20052;-74
2021/06/21 02:03:28;;;;;;;8.05;1.90;;;;;;;17.70;97.42;100434.91;6272804;28;20045;-75
2021/06/21 02:06:32;;;;;;;7.50;1.80;;;;;;;17.65;98.75;100431.81;6274734;28;20056;-74
2021/06/21 02:09:34;;;;;;;4.40;1.90;;;;;;;17.49;100.00;100427.00;6274214;28;20045;-74
2021/06/21 02:12:36;;;;;;;8.45;1.95;;;;;;;17.49;100.00;100424.34;6274704;28;20045;-74
2021/06/21 02:15:38;;;;;;;7.13;2.15;;;;;;;17.36;100.00;100429.06;6274155;28;20048;-74
2021/06/21 02:18:42;;;;;;;7.25;2.00;;;;;;;17.38;100.00;100423.59;6274040;28;20052;-72
2021/06/21 02:21:44;;;;;;;6.22;2.35;;;;;;;17.23;100.00;100431.94;6274122;28;20053;-72
2021/06/21 02:24:45;;;;;;;8.15;2.28;;;;;;;17.05;100.00;100428.19;6274062;28;20049;-72
2021/06/21 02:27:48;;;;;;;6.20;2.47;;;;;;;16.99;100.00;100428.72;6274115;28;20056;-72
2021/06/21 02:30:51;;;;;;;9.05;3.13;;;;;;;16.78;100.00;100431.38;6274009;28;20060;-73
2021/06/21 02:33:53;;;;;;;9.98;2.67;;;;;;;16.76;100.00;100438.66;6253792;28;20056;-73
2021/06/21 02:36:55;;;;;;;7.95;3.33;;;;;;;16.66;100.00;100437.69;6249121;28;20050;-73
2021/06/21 02:39:56;;;;;;;9.48;2.90;;;;;;;16.65;100.00;100441.31;6260684;28;20049;-72
2021/06/21 02:42:57;;;;;;;7.25;3.00;;;;;;;16.50;100.00;100432.81;6270558;28;20427;-72
2021/06/21 02:45:59;;;;;;;8.57;3.17;;;;;;;16.35;100.00;100434.06;6265210;28;20049;-72
2021/06/21 02:49:02;;;;;;;10.95;3.83;;;;;;;16.34;100.00;100429.75;6254455;28;20420;-73
2021/06/21 02:52:14;;;;;;;9.00;3.35;;;;;;;16.30;100.00;100430.97;6298926;22;20420;-71
2021/06/21 02:55:21;;;;;;;9.02;3.65;;;;;;;16.15;100.00;100422.47;6247761;28;20053;-72
2021/06/21 02:58:25;;;;;;;11.15;3.85;;;;;;;16.15;100.00;100425.13;6248488;28;20045;-71
2021/06/21 03:01:27;;;;;;;6.38;3.50;;;;;;;16.16;100.00;100418.84;6239935;28;20069;-71
2021/06/21 03:04:31;;;;;;;8.98;4.85;;;;;;;16.06;100.00;100416.09;6244725;28;20038;-71
2021/06/21 03:07:34;;;;;;;9.30;4.20;;;;;;;16.02;100.00;100413.81;6226432;28;20398;-71
2021/06/21 03:10:38;;;;;;;6.88;4.03;;;;;;;16.03;100.00;100416.34;6232987;28;20052;-72
2021/06/21 03:13:40;;;;;;;10.82;3.95;;;;;;;15.89;100.00;100411.31;6235863;28;20129;-71
2021/06/21 03:16:42;;;;;;;6.25;3.90;;;;;;;15.89;100.00;100412.16;6233019;28;20056;-71
2021/06/21 03:19:45;;;;;;;14.95;4.68;;;;;;;15.84;100.00;100417.00;6232643;28;20463;-72
2021/06/21 03:22:48;;;;;;;8.18;4.50;;;;;;;15.87;100.00;100413.28;6234506;28;20489;-72
2021/06/21 03:25:52;;;;;;;11.48;5.18;;;;;;;15.82;100.00;100416.28;6233697;28;20054;-72
2021/06/21 03:28:54;;;;;;;6.95;4.53;;;;;;;15.86;100.00;100403.66;6236602;28;20493;-71
2021/06/21 03:31:56;;;;;;;13.38;5.07;;;;;;;15.75;100.00;100395.69;6241503;28;20058;-72
2021/06/21 03:35:01;;;;;;;9.32;4.97;;;;;;;15.65;100.00;100396.44;6234768;28;20053;-71
2021/06/21 03:38:10;;;;;;;10.80;5.13;;;;;;;15.60;100.00;100389.81;6235201;28;20401;-73
2021/06/21 03:41:12;;;;;;;9.38;5.55;;;;;;;15.61;100.00;100381.72;6235230;28;20041;-72
2021/06/21 03:44:14;;;;;;;10.02;5.50;;;;;;;15.48;100.00;100381.84;6247520;28;20408;-72
2021/06/21 03:47:15;;;;;;;10.52;6.05;;;;;;;15.60;100.00;100380.06;6247615;28;20049;-73
2021/06/21 03:50:18;;;;;;;13.05;6.10;;;;;;;15.56;100.00;100375.97;6245257;28;20053;-73
2021/06/21 03:53:22;;;;;;;11.82;5.60;;;;;;;15.50;100.00;100381.75;6247457;28;20052;-72
2021/06/21 03:56:24;;;;;;;11.32;6.40;;;;;;;15.47;100.00;100374.03;6247322;28;20045;-72
2021/06/21 03:59:25;;;;;;;12.52;6.28;;;;;;;15.52;100.00;100376.31;6247097;28;20497;-72
2021/06/21 04:02:26;;;;;;;14.23;7.43;;;;;;;15.45;100.00;100376.00;6247136;28;20049;-73
2021/06/21 04:05:30;;;;;;;16.67;7.70;;;;;;;15.53;100.00;100378.00;6247152;28;20485;-72
2021/06/21 04:08:31;;;;;;;16.60;7.95;;;;;;;15.45;100.00;100378.63;6246944;28;20057;-73
2021/06/21 04:11:33;;;;;;;13.60;7.75;;;;;;;15.50;100.00;100371.16;6246948;28;20049;-73
2021/06/21 04:14:34;;;;;;;13.82;8.35;;;;;;;15.59;100.00;100374.88;6247086;28;20041;-73
2021/06/21 04:17:37;;;;;;;12.43;7.97;;;;;;;15.51;100.00;100378.13;6244975;28;20053;-72
2021/06/21 04:20:42;;;;;;;14.10;8.52;;;;;;;15.51;100.00;100386.09;6246511;28;20423;-72
2021/06/21 04:23:43;;;;;;;14.88;8.20;;;;;;;15.63;100.00;100385.13;6246132;28;20049;-73
2021/06/21 04:26:44;;;;;;;16.33;8.00;;;;;;;15.58;100.00;100383.78;6246921;28;20049;-72
2021/06/21 04:29:46;;;;;;;15.73;8.90;;;;;;;15.52;100.00;100374.53;6246383;28;20064;-73
2021/06/21 04:32:48;;;;;;;14.02;8.73;;;;;;;15.53;100.00;100378.84;6246795;28;20045;-73
2021/06/21 04:35:50;;;;;;;12.75;9.07;;;;;;;15.54;100.00;100372.59;6246616;28;20045;-72
2021/06/21 04:38:52;;;;;;;13.05;8.23;;;;;;;15.53;100.00;100376.19;6246763;28;20041;-74
2021/06/21 04:41:53;;;;;;;16.92;10.13;;;;;;;15.64;100.00;100367.44;6246367;28;20045;-73
2021/06/21 04:44:54;;;;;;;12.75;8.35;;;;;;;15.55;100.00;100370.78;6246628;28;20045;-72
2021/06/21 04:47:56;;;;;;;12.60;8.52;;;;;;;15.62;100.00;100367.50;6244833;28;20060;-73
2021/06/21 04:50:58;;;;;;;15.60;8.68;;;;;;;15.53;100.00;100372.72;6246258;28;20053;-73
2021/06/21 04:54:00;;;;;;;13.20;9.57;;;;;;;15.58;100.00;100373.19;6246593;28;20045;-73
2021/06/21 04:57:01;;;;;;;13.77;9.25;;;;;;;15.47;100.00;100374.03;6246396;28;20049;-72
2021/06/21 05:00:05;;;;;;;13.35;9.30;;;;;;;15.64;100.00;100357.69;6246183;28;20053;-73
2021/06/21 05:03:06;;;;;;;13.60;9.27;;;;;;;15.58;100.00;100365.22;6246188;28;20531;-74
2021/06/21 05:06:09;;;;;;;13.00;8.80;;;;;;;15.48;100.00;100367.78;6246373;28;20052;-72
2021/06/21 05:09:11;;;;;;;15.68;9.15;;;;;;;15.53;100.00;100356.81;6246060;28;20049;-73
2021/06/21 05:12:12;;;;;;;17.13;8.63;;;;;;;15.44;100.00;100359.25;6246341;28;20045;-73
2021/06/21 05:15:15;;;;;;;17.25;10.77;;;;;;;15.40;100.00;100354.34;6243913;28;20048;-72
2021/06/21 05:18:16;;;;;;;13.55;9.98;;;;;;;15.56;100.00;100359.22;6221871;28;20493;-72
2021/06/21 05:21:19;;;;;;;12.77;9.45;;;;;;;15.34;100.00;100358.28;6221380;28;20049;-72
2021/06/21 05:24:20;;;;;;;14.55;9.90;;;;;;;15.33;100.00;100353.13;6221431;28;20417;-72
2021/06/21 05:27:22;;;;;;;14.73;10.50;;;;;;;15.35;100.00;100346.75;6221755;28;20053;-73
2021/06/21 05:30:24;;;;;;;10.75;9.35;;;;;;;15.38;100.00;100348.31;6221230;28;20054;-73
2021/06/21 05:33:25;;;;;;;12.13;8.95;;;;;;;15.53;100.00;100340.94;6221679;28;20429;-73
2021/06/21 05:36:28;;;;;;;10.10;8.60;;;;;;;15.48;100.00;100334.19;6223109;28;20053;-73
2021/06/21 05:39:30;;;;;;;11.07;8.80;;;;;;;15.35;100.00;100335.28;6225840;28;20057;-73
2021/06/21 05:42:31;;;;;;;11.55;8.90;;;;;;;15.34;100.00;100338.91;6225745;28;20050;-73
2021/06/21 05:45:33;;;;;;;13.80;9.13;;;;;;;15.32;100.00;100336.41;6226985;28;20050;-73
2021/06/21 05:48:34;;;;;;;13.30;9.57;;;;;;;15.28;100.00;100337.59;6225723;28;20053;-73
2021/06/21 05:51:37;;;;;;;14.13;9.75;;;;;;;15.36;100.00;100339.66;6225344;28;20053;-73
2021/06/21 05:54:38;;;;;;;12.32;9.20;;;;;;;15.41;100.00;100338.31;6225718;28;20046;-73
2021/06/21 05:57:41;;;;;;;12.68;9.90;;;;;;;15.32;100.00;100341.69;6225023;28;20413;-74
2021/06/21 06:00:42;;;;;;;15.52;9.38;;;;;;;15.46;100.00;100337.94;6225288;28;20053;-73
2021/06/21 06:03:43;;;;;;;14.30;8.68;;;;;;;15.27;100.00;100338.56;6225351;28;20050;-73
2021/06/21 06:06:46;;;;;;;10.45;7.97;;;;;;;15.41;100.00;100338.31;6225501;28;20053;-73
2021/06/21 06:09:49;;;;;;;14.35;7.63;;;;;;;15.34;100.00;100329.16;6224927;28;20440;-73
2021/06/21 06:12:50;;;;;;;10.20;7.30;;;;;;;15.40;100.00;100338.44;6225489;28;20053;-74
2021/06/21 06:15:52;;;;;;;10.52;7.47;;;;;;;15.35;100.00;100333.50;6224889;28;20413;-73
2021/06/21 06:18:53;;;;;;;9.68;7.45;;;;;;;15.50;100.00;100336.72;6225382;28;20049;-73
2021/06/21 06:21:56;;;;;;;11.35;7.90;;;;;;;15.40;100.00;100333.16;6224820;28;20053;-73
2021/06/21 06:24:57;;;;;;;9.38;6.03;;;;;;;15.46;100.00;100333.47;6225252;28;20056;-73
2021/06/21 06:27:59;;;;;;;6.80;6.10;;;;;;;15.40;100.00;100336.63;6220685;28;20073;-73
2021/06/21 06:31:01;;;;;;;6.90;5.85;;;;;;;15.53;100.00;100338.28;6224763;28;20428;-73
2021/06/21 06:34:03;;;;;;;11.18;8.40;;;;;;;15.41;100.00;100338.31;6224835;28;20049;-73
2021/06/21 06:37:06;;;;;;;8.95;5.95;;;;;;;15.44;100.00;100340.72;6224318;28;20493;-72
2021/06/21 06:40:09;;;;;;;6.80;5.57;;;;;;;15.48;100.00;100343.94;6223352;28;20064;-72
2021/06/21 06:43:10;;;;;;;5.53;5.03;;;;;;;15.38;100.00;100338.53;6206751;28;20521;-73
2021/06/21 06:46:12;;;;;;;5.68;5.07;;;;;;;15.47;100.00;100345.75;6214735;28;20053;-73
2021/06/21 06:49:13;;;;;;;4.90;4.38;;;;;;;15.48;100.00;100354.53;6211545;28;20045;-73
2021/06/21 06:52:19;;;;;;;4.32;3.92;;;;;;;15.37;100.00;100347.47;6235142;28;20046;-73
2021/06/21 06:58:40;;;;;;;4.97;4.30;;;;;;;15.39;100.00;100350.81;6223937;28;20669;-73
2021/06/21 07:01:42;;;;;;;6.70;4.75;;;;;;;15.34;100.00;100346.84;6223641;28;20057;-74
2021/06/21 07:04:43;;;;;;;4.72;4.10;;;;;;;15.34;100.00;100349.50;6234632;28;20049;-73
2021/06/21 07:07:46;;;;;;;4.90;4.40;;;;;;;15.37;100.00;100346.63;6234894;28;20052;-73
2021/06/21 07:10:47;;;;;;;4.45;3.92;;;;;;;15.33;100.00;100356.59;6245803;28;20191;-72
2021/06/21 07:13:49;;;;;;;4.28;3.88;;;;;;;15.40;100.00;100349.88;6245881;28;20057;-73
2021/06/21 07:16:50;;;;;;;4.40;4.00;;;;;;;15.43;100.00;100351.41;6229032;28;20042;-73
2021/06/21 07:19:52;;;;;;;4.18;3.78;;;;;;;15.35;100.00;100341.47;6233576;28;20104;-73
2021/06/21 07:22:54;;;;;;;4.63;4.15;;;;;;;15.39;100.00;100336.75;6239935;28;20045;-73
2021/06/21 07:25:56;;;;;;;5.15;4.13;;;;;;;15.45;100.00;100330.97;6248340;28;20053;-73
2021/06/21 07:28:58;;;;;;;4.10;3.70;;;;;;;15.59;100.00;100338.63;6247974;28;20056;-73
2021/06/21 07:32:00;;;;;;;7.30;4.10;;;;;;;15.65;100.00;100335.50;6240351;28;20052;-73
2021/06/21 07:35:01;;;;;;;5.57;4.50;;;;;;;15.62;100.00;100337.53;6246467;28;20054;-73
2021/06/21 07:38:04;;;;;;;4.80;4.13;;;;;;;15.60;100.00;100336.84;6247525;28;20049;-73
2021/06/21 07:41:05;;;;;;;4.38;3.85;;;;;;;15.63;100.00;100345.38;6246408;28;20057;-73
2021/06/21 07:44:06;;;;;;;3.97;3.55;;;;;;;15.57;100.00;100335.25;6247147;28;20071;-73
2021/06/21 07:47:08;;;;;;;4.57;3.75;;;;;;;15.47;100.00;100334.31;6234169;28;20060;-73
2021/06/21 07:50:11;;;;;;;5.35;3.67;;;;;;;15.56;100.00;100332.75;6222755;28;20049;-74
2021/06/21 07:53:13;;;;;;;3.90;3.50;;;;;;;15.45;100.00;100330.97;6222319;28;20068;-71
2021/06/21 07:56:15;;;;;;;5.10;3.92;;;;;;;15.35;100.00;100330.88;6235627;28;20045;-72
2021/06/21 07:59:16;;;;;;;4.35;3.88;;;;;;;15.45;100.00;100333.63;6239362;28;20094;-72
2021/06/21 08:02:18;;;;;;;5.15;4.20;;;;;;;15.48;100.00;100339.47;6241308;28;20053;-72
2021/06/21 08:05:20;;;;;;;4.93;4.45;;;;;;;15.53;100.00;100341.75;6222518;28;20404;-73
2021/06/21 08:08:23;;;;;;;5.30;4.60;;;;;;;15.51;100.00;100342.88;6222396;28;20417;-71
2021/06/21 08:11:24;;;;;;;4.15;3.75;;;;;;;15.58;100.00;100346.69;6232399;28;20049;-72
2021/06/21 08:14:25;;;;;;;7.00;3.83;;;;;;;15.47;100.00;100342.28;6246813;28;20056;-72
2021/06/21 08:17:27;;;;;;;6.50;3.90;;;;;;;15.56;100.00;100343.34;6245334;28;20049;-72
2021/06/21 08:20:28;;;;;;;11.60;4.65;;;;;;;15.62;100.00;100348.13;6246698;28;20053;-72
2021/06/21 08:23:33;;;;;;;4.38;3.97;;;;;;;15.54;100.00;100345.28;6247381;28;20049;-72
2021/06/21 08:26:35;;;;;;;4.63;4.13;;;;;;;15.49;100.00;100350.94;6247025;28;20041;-72
2021/06/21 08:29:36;;;;;;;4.72;3.95;;;;;;;15.64;100.00;100354.19;6226912;28;20050;-71
2021/06/21 08:32:39;;;;;;;4.53;2.97;;;;;;;15.62;100.00;100342.84;6222316;28;20054;-72
2021/06/21 08:35:40;;;;;;;4.95;3.47;;;;;;;15.59;100.00;100346.59;6229511;28;20041;-73
2021/06/21 08:38:43;;;;;;;4.35;3.53;;;;;;;15.72;100.00;100351.78;6225002;28;20056;-72
2021/06/21 08:41:44;;;;;;;6.68;2.90;;;;;;;15.67;100.00;100354.78;6244559;28;20501;-71
2021/06/21 08:44:46;;;;;;;4.35;3.03;;;;;;;15.58;100.00;100352.00;6227572;28;20053;-72
2021/06/21 08:47:47;;;;;;;3.60;2.65;;;;;;;15.66;100.00;100353.09;6230957;28;20052;-71
2021/06/21 08:53:53;;;;;;;2.65;2.45;;;;;;;15.57;100.00;100351.16;6243137;28;20053;-79
2021/06/21 08:56:57;;;;;;;3.13;2.72;;;;;;;15.65;100.00;100342.63;6246665;28;20508;-73
2021/06/21 08:59:59;;;;;;;3.60;3.28;;;;;;;15.63;100.00;100341.88;6240629;28;20050;-72
2021/06/21 09:03:02;;;;;;;4.18;3.42;;;;;;;15.56;100.00;100343.34;6245930;28;20053;-72
2021/06/21 09:06:05;;;;;;;7.07;3.25;;;;;;;15.75;100.00;100346.19;6245813;28;20053;-73
2021/06/21 09:09:08;;;;;;;3.38;3.08;;;;;;;15.68;100.00;100345.88;6245245;28;20049;-74
2021/06/21 09:12:10;;;;;;;3.45;3.00;;;;;;;15.71;100.00;100348.28;6233665;28;20076;-73
2021/06/21 09:15:12;;;;;;;3.10;2.80;;;;;;;15.45;100.00;100339.75;6231405;28;20049;-74
2021/06/21 09:18:34;;;;;;;5.95;3.63;;;;;;;15.60;100.00;100337.66;6236796;28;20064;-74
2021/06/21 09:21:38;;;;;;;3.83;3.28;;;;;;;15.77;100.00;100336.34;6225172;28;20053;-73
2021/06/21 09:24:41;;;;;;;4.72;3.20;;;;;;;15.59;100.00;100332.50;6238264;28;20057;-72
2021/06/21 09:27:53;;;;;;;4.35;3.63;;;;;;;15.59;100.00;100336.00;6250658;28;20108;-72
2021/06/21 09:30:56;;;;;;;4.60;4.10;;;;;;;15.64;100.00;100344.44;6249245;28;20488;-73
2021/06/21 09:34:13;;;;;;;3.85;3.20;;;;;;;15.67;100.00;100344.19;6250561;28;20053;-73
2021/06/21 09:37:16;;;;;;;4.32;3.50;;;;;;;15.65;100.00;100348.75;6249908;28;20046;-74
2021/06/21 09:40:31;;;;;;;6.78;3.45;;;;;;;15.71;100.00;100348.28;6249324;28;20485;-73
2021/06/21 09:43:35;;;;;;;6.28;3.88;;;;;;;15.59;100.00;100354.53;6249879;28;20136;-74
2021/06/21 09:46:36;;;;;;;5.10;3.92;;;;;;;15.68;100.00;100356.47;6249576;28;20041;-73
2021/06/21 09:49:37;;;;;;;5.03;4.20;;;;;;;15.74;100.00;100349.81;6248735;28;20054;-74
2021/06/21 09:52:43;;;;;;;6.25;4.35;;;;;;;15.94;100.00;100358.78;6249516;28;20081;-74
2021/06/21 09:55:45;;;;;;;5.68;4.00;;;;;;;15.93;100.00;100349.16;6249164;28;20058;-73
2021/06/21 09:58:47;;;;;;;6.30;3.80;;;;;;;16.01;100.00;100362.63;6249157;28;20428;-74
2021/06/21 10:02:06;;;;;;;4.40;3.88;;;;;;;16.03;100.00;100360.69;6248269;28;20080;-73
2021/06/21 10:05:18;;;;;;;;;;;;;;;15.95;100.00;100358.69;6250050;28;20045;-73
2021/06/21 10:08:20;;;;;;;7.85;4.28;;;;;;;16.12;100.00;100375.81;6249485;28;19925;-73
2021/06/21 10:11:30;;;;;;;7.22;4.47;;;;;;;16.08;100.00;100374.44;6248459;28;20054;-73
2021/06/21 10:14:32;;;;;;;4.80;4.05;;;;;;;16.05;100.00;100379.97;6249154;28;20056;-74
2021/06/21 10:17:33;;;;;;;5.43;4.57;;;;;;;16.16;100.00;100389.69;6247587;28;20056;-74
2021/06/21 10:20:35;;;;;;;9.85;6.43;;;;;;;16.30;100.00;100388.53;6248288;28;20049;-73
2021/06/21 10:23:37;;;;;;;6.82;5.40;;;;;;;16.20;100.00;100388.47;6248355;28;20530;-73
2021/06/21 10:26:41;;;;;;;10.68;5.47;;;;;;;16.14;100.00;100384.50;6249097;28;20045;-73
2021/06/21 10:29:43;;;;;;;5.85;5.20;;;;;;;16.17;100.00;100375.47;6248391;28;20424;-74
2021/06/21 10:32:47;;;;;;;7.65;4.88;;;;;;;16.23;100.00;100374.97;6248254;28;20529;-74
2021/06/21 10:35:48;;;;;;;5.35;4.78;;;;;;;16.32;100.00;100383.97;6248901;28;20053;-74
2021/06/21 10:39:08;;;;;;;7.18;5.35;;;;;;;16.31;100.00;100390.25;6248923;28;20056;-74
2021/06/21 10:42:21;;;;;;;6.10;5.13;;;;;;;16.29;100.00;100386.88;6247936;28;20056;-73
2021/06/21 10:45:24;;;;;;;9.10;4.70;;;;;;;16.32;100.00;100391.91;6248641;28;20053;-74
2021/06/21 10:48:25;;;;;;;6.15;5.00;;;;;;;16.31;100.00;100391.09;6246955;28;20045;-73
2021/06/21 10:51:30;;;;;;;5.30;4.70;;;;;;;16.32;100.00;100383.97;6247476;28;20069;-73
2021/06/21 10:54:32;;;;;;;7.05;4.20;;;;;;;16.35;100.00;100394.28;6246765;28;20067;-73
2021/06/21 10:57:36;;;;;;;5.70;5.10;;;;;;;16.38;100.00;100394.88;6248503;28;20050;-73
2021/06/21 11:00:39;;;;;;;10.60;5.57;;;;;;;16.39;100.00;100404.53;6247390;28;20053;-73
2021/06/21 11:03:41;;;;;;;9.63;5.85;;;;;;;16.53;100.00;100406.03;6228280;28;20058;-74
2021/06/21 11:06:43;;;;;;;6.10;5.50;;;;;;;16.44;100.00;100404.13;6231003;28;20118;-74
2021/06/21 11:09:46;;;;;;;13.02;7.13;;;;;;;16.50;100.00;100401.00;6247183;28;20203;-73
2021/06/21 11:12:49;;;;;;;6.57;5.50;;;;;;;16.68;100.00;100398.59;6247454;28;20068;-74
2021/06/21 11:16:24;;;;;;;14.75;6.68;;;;;;;16.70;100.00;100396.66;6248212;28;20045;-75
2021/06/21 11:19:34;;;;;;;6.72;5.70;;;;;;;16.87;100.00;100396.09;6245777;28;20049;-74
2021/06/21 11:22:45;;;;;;;6.40;5.45;;;;;;;16.89;100.00;100398.59;6247378;28;20493;-74
2021/06/21 11:25:49;;;;;;;7.55;6.03;;;;;;;17.04;100.00;100392.00;6247362;28;20045;-73
2021/06/21 11:28:52;;;;;;;8.57;6.25;;;;;;;17.16;100.00;100400.72;6247749;28;20060;-75
2021/06/21 11:31:58;;;;;;;10.60;6.78;;;;;;;17.27;100.00;100392.66;6245661;28;20053;-73
2021/06/21 11:35:01;;;;;;;7.20;6.05;;;;;;;17.22;100.00;100403.69;6247818;28;20051;-75
2021/06/21 11:38:20;;;;;;;12.07;7.22;;;;;;;17.28;100.00;100396.16;6247472;28;20037;-74
2021/06/21 11:41:24;;;;;;;8.27;7.47;;;;;;;17.27;100.00;100416.56;6246138;28;20045;-73
2021/06/21 11:44:46;;;;;;;16.85;6.65;;;;;;;17.19;100.00;100409.25;6247350;28;20049;-73
2021/06/21 11:47:49;;;;;;;19.10;7.20;;;;;;;17.12;100.00;100407.25;6246734;28;20055;-73
2021/06/21 11:50:51;;;;;;;9.90;7.55;;;;;;;17.12;100.00;100426.72;6221825;28;20489;-73
2021/06/21 11:53:52;;;;;;;12.90;8.27;;;;;;;17.28;100.00;100407.63;6222613;28;20053;-72
2021/06/21 11:56:55;;;;;;;12.18;7.68;;;;;;;17.32;100.00;100409.03;6222702;28;20061;-72
2021/06/21 11:59:58;;;;;;;8.68;7.78;;;;;;;17.12;100.00;100413.44;6221923;28;20046;-73
2021/06/21 12:03:01;;;;;;;9.10;8.20;;;;;;;17.08;100.00;100411.16;6235713;28;20053;-74
2021/06/21 12:06:03;;;;;;;8.25;7.45;;;;;;;17.08;100.00;100416.47;6243910;28;20046;-73
2021/06/21 12:09:05;;;;;;;9.00;7.95;;;;;;;17.22;100.00;100419.63;6221678;28;20057;-74
2021/06/21 12:12:08;;;;;;;10.00;8.15;;;;;;;17.15;100.00;100420.28;6221503;28;20050;-74
2021/06/21 12:15:12;;;;;;;7.60;6.82;;;;;;;17.16;100.00;100412.16;6229145;28;20056;-73
2021/06/21 12:18:14;;;;;;;9.52;8.38;;;;;;;17.03;100.00;100416.84;6245928;28;20416;-74
2021/06/21 12:21:27;;;;;;;31.85;9.32;;;;;;;17.14;100.00;100427.41;6221336;28;20130;-74
2021/06/21 12:24:30;;;;;;;16.52;8.85;;;;;;;16.97;100.00;100422.69;6222511;28;20050;-74
2021/06/21 12:27:33;;;;;;;10.57;8.75;;;;;;;16.96;100.00;100421.84;6221978;28;20061;-73
2021/06/21 12:30:37;;;;;;;12.32;9.20;;;;;;;16.88;100.00;100424.31;6220951;28;20432;-73
2021/06/21 12:33:42;;;;;;;13.82;9.23;;;;;;;16.91;100.00;100425.88;6222158;28;20065;-73
2021/06/21 12:36:43;;;;;;;11.13;9.95;;;;;;;16.98;100.00;100413.75;6221626;28;20152;-74
2021/06/21 12:39:46;;;;;;;13.35;10.10;;;;;;;16.97;100.00;100410.25;6240431;28;20072;-74
2021/06/21 12:42:49;;;;;;;11.93;10.50;;;;;;;17.12;100.00;100425.84;6245362;28;20046;-74
2021/06/21 12:45:51;;;;;;;10.65;9.50;;;;;;;17.25;100.00;100427.31;6247990;28;20061;-74
2021/06/21 12:48:54;;;;;;;9.90;8.65;;;;;;;17.44;100.00;100426.59;6246215;28;20049;-74
2021/06/21 12:51:55;;;;;;;10.20;7.55;;;;;;;17.34;100.00;100427.50;6252858;28;20504;-74
2021/06/21 12:55:06;;;;;;;14.23;9.75;;;;;;;17.21;100.00;100433.88;6254473;28;20056;-74
2021/06/21 12:58:08;;;;;;;15.27;8.88;;;;;;;17.07;100.00;100433.38;6254195;28;20049;-75
2021/06/21 13:01:21;;;;;;;9.88;8.40;;;;;;;17.32;100.00;100426.81;6253623;28;20065;-74
2021/06/21 13:04:22;;;;;;;13.23;8.25;;;;;;;17.26;100.00;100430.84;6254457;28;20053;-73
2021/06/21 13:07:26;;;;;;;19.80;8.75;;;;;;;17.22;100.00;100448.00;6254018;28;20049;-74
2021/06/21 13:10:27;;;;;;;17.25;7.95;;;;;;;17.21;100.00;100446.28;6253124;28;20172;-74
2021/06/21 13:13:35;;;;;;;12.55;9.77;;;;;;;17.10;100.00;100452.53;6253931;28;20071;-75
2021/06/21 13:16:38;;;;;;;18.50;8.20;;;;;;;17.22;100.00;100450.66;6254124;28;20116;-75
2021/06/21 13:19:49;;;;;;;14.38;8.65;;;;;;;17.21;100.00;100438.31;6238506;28;20161;-74
2021/06/21 13:22:54;;;;;;;13.05;9.52;;;;;;;17.12;100.00;100440.00;6228767;28;20061;-74
2021/06/21 13:25:58;;;;;;;14.68;9.98;;;;;;;17.17;100.00;100442.25;6229457;28;20046;-74
2021/06/21 13:29:17;;;;;;;14.18;10.18;;;;;;;17.16;100.00;100441.38;6249944;28;20497;-75
2021/06/21 13:32:28;;;;;;;15.60;9.68;;;;;;;17.22;100.00;100434.72;6253293;28;20060;-73
2021/06/21 13:35:30;;;;;;;17.38;10.70;;;;;;;17.05;100.00;100425.53;6254082;28;20045;-74
2021/06/21 13:38:34;;;;;;;13.98;9.13;;;;;;;17.21;100.00;100425.91;6250134;28;20511;-74
2021/06/21 13:41:36;;;;;;;20.80;10.75;;;;;;;17.19;100.00;100432.31;6252851;28;20056;-74
2021/06/21 13:44:40;;;;;;;16.23;10.73;;;;;;;17.31;100.00;100423.31;6251631;28;20045;-74
2021/06/21 13:47:45;;;;;;;15.68;10.35;;;;;;;17.17;100.00;100421.84;6248133;28;20132;-74
2021/06/21 13:50:48;;;;;;;14.27;9.95;;;;;;;17.26;100.00;100417.56;6250886;28;20056;-73
2021/06/21 13:53:50;;;;;;;10.20;8.55;;;;;;;17.34;100.00;100419.53;6248035;28;20052;-74
2021/06/21 13:56:51;;;;;;;12.07;8.57;;;;;;;17.13;100.00;100417.78;6250331;28;20056;-74
2021/06/21 13:59:52;;;;;;;12.55;9.50;;;;;;;17.06;100.00;100427.22;6248189;28;20054;-76
2021/06/21 14:02:56;;;;;;;10.98;8.45;;;;;;;16.99;100.00;100432.22;6246593;28;20056;-74
2021/06/21 14:05:58;;;;;;;15.63;10.02;;;;;;;16.99;100.00;100434.88;6249557;28;20424;-76
2021/06/21 14:09:02;;;;;;;12.68;9.82;;;;;;;16.90;100.00;100438.31;6250935;28;20053;-76